Chipman Lake, Vermont
Current Conditions -  °F | °C
As of 2:55 AM on Wednesday 26 Nov 2014 (Local Time) from KRUT Reporting Station
Overcast Overcast  
Wind Chill: 33°   Ceiling: 3900
Heat Index: 37°   Visibility: 10mi
Dew Point: 27°   Wind: 6mph
Humidity: 65%   Direction: 320°NW
Pressure: 30.17"   Gusts: NA
Location:  43.3492°N, 72.9643°W
Report Text: KRUT 260755Z 32005KT 10SM OVC039 03/M03 A3017 RMK AO1
Loading
Personal Weather Stations






























Interactive Weather Map New forecast layout! Learn more

10-Day Weather Forecast

Advertisements
Track Severe Weather on mobile